sensor_id;sensor_type;location;lat;lon;timestamp;P1;durP1;ratioP1;P2;durP2;ratioP2
57889;SDS011;43707;50.184;18.966;2022-12-18T00:02:06;94.30;;;26.50;;
57889;SDS011;43707;50.184;18.966;2022-12-18T00:04:37;72.60;;;22.80;;
57889;SDS011;43707;50.184;18.966;2022-12-18T00:07:06;75.90;;;25.10;;
57889;SDS011;43707;50.184;18.966;2022-12-18T00:09:31;94.60;;;27.90;;
57889;SDS011;43707;50.184;18.966;2022-12-18T00:11:57;98.20;;;28.30;;
57889;SDS011;43707;50.184;18.966;2022-12-18T00:14:25;94.50;;;27.00;;
57889;SDS011;43707;50.184;18.966;2022-12-18T00:16:54;76.00;;;24.80;;
57889;SDS011;43707;50.184;18.966;2022-12-18T00:19:25;71.80;;;23.00;;
57889;SDS011;43707;50.184;18.966;2022-12-18T00:21:54;79.00;;;22.70;;
57889;SDS011;43707;50.184;18.966;2022-12-18T00:24:19;63.40;;;22.10;;
57889;SDS011;43707;50.184;18.966;2022-12-18T00:26:45;76.50;;;26.00;;
57889;SDS011;43707;50.184;18.966;2022-12-18T00:29:11;65.70;;;21.90;;
57889;SDS011;43707;50.184;18.966;2022-12-18T00:31:39;71.80;;;23.80;;
57889;SDS011;43707;50.184;18.966;2022-12-18T00:34:11;72.70;;;26.80;;
57889;SDS011;43707;50.184;18.966;2022-12-18T00:36:38;93.10;;;30.20;;
57889;SDS011;43707;50.184;18.966;2022-12-18T00:39:10;72.80;;;25.60;;
57889;SDS011;43707;50.184;18.966;2022-12-18T00:41:37;65.40;;;21.80;;
57889;SDS011;43707;50.184;18.966;2022-12-18T00:44:21;67.00;;;22.50;;
57889;SDS011;43707;50.184;18.966;2022-12-18T00:46:47;58.40;;;16.30;;
57889;SDS011;43707;50.184;18.966;2022-12-18T00:49:19;78.30;;;23.60;;
57889;SDS011;43707;50.184;18.966;2022-12-18T00:51:48;75.90;;;25.50;;
57889;SDS011;43707;50.184;18.966;2022-12-18T00:54:14;63.40;;;22.50;;
57889;SDS011;43707;50.184;18.966;2022-12-18T00:56:42;68.80;;;23.40;;
57889;SDS011;43707;50.184;18.966;2022-12-18T00:59:08;76.90;;;23.90;;
57889;SDS011;43707;50.184;18.966;2022-12-18T01:01:33;76.00;;;23.40;;
57889;SDS011;43707;50.184;18.966;2022-12-18T01:04:00;87.10;;;29.30;;
57889;SDS011;43707;50.184;18.966;2022-12-18T01:06:26;73.00;;;23.20;;
57889;SDS011;43707;50.184;18.966;2022-12-18T01:08:52;85.30;;;27.70;;
57889;SDS011;43707;50.184;18.966;2022-12-18T01:11:18;84.70;;;27.90;;
57889;SDS011;43707;50.184;18.966;2022-12-18T01:13:45;83.20;;;25.10;;
57889;SDS011;43707;50.184;18.966;2022-12-18T01:16:12;74.10;;;26.60;;
57889;SDS011;43707;50.184;18.966;2022-12-18T01:18:39;64.30;;;24.00;;
57889;SDS011;43707;50.184;18.966;2022-12-18T01:21:06;62.20;;;23.40;;
57889;SDS011;43707;50.184;18.966;2022-12-18T01:23:32;72.10;;;25.20;;
57889;SDS011;43707;50.184;18.966;2022-12-18T01:25:58;69.80;;;21.00;;
57889;SDS011;43707;50.184;18.966;2022-12-18T01:28:50;74.50;;;23.70;;
57889;SDS011;43707;50.184;18.966;2022-12-18T01:31:26;52.50;;;19.70;;
57889;SDS011;43707;50.184;18.966;2022-12-18T01:33:53;60.40;;;20.60;;
57889;SDS011;43707;50.184;18.966;2022-12-18T01:36:26;59.30;;;20.80;;
57889;SDS011;43707;50.184;18.966;2022-12-18T01:38:54;64.50;;;20.80;;
57889;SDS011;43707;50.184;18.966;2022-12-18T01:41:22;60.70;;;21.50;;
57889;SDS011;43707;50.184;18.966;2022-12-18T01:43:52;56.90;;;20.00;;
57889;SDS011;43707;50.184;18.966;2022-12-18T01:46:21;64.60;;;21.60;;
57889;SDS011;43707;50.184;18.966;2022-12-18T01:48:52;58.70;;;19.70;;
57889;SDS011;43707;50.184;18.966;2022-12-18T01:51:20;38.60;;;16.10;;
57889;SDS011;43707;50.184;18.966;2022-12-18T01:53:49;60.80;;;19.50;;
57889;SDS011;43707;50.184;18.966;2022-12-18T01:56:16;57.80;;;18.60;;
57889;SDS011;43707;50.184;18.966;2022-12-18T02:01:35;56.10;;;18.80;;
57889;SDS011;43707;50.184;18.966;2022-12-18T02:06:49;68.80;;;22.90;;
57889;SDS011;43707;50.184;18.966;2022-12-18T02:17:57;67.90;;;21.80;;
57889;SDS011;43707;50.184;18.966;2022-12-18T02:20:36;59.30;;;20.20;;
57889;SDS011;43707;50.184;18.966;2022-12-18T02:28:44;71.30;;;21.60;;
57889;SDS011;43707;50.184;18.966;2022-12-18T02:31:32;48.50;;;18.40;;
57889;SDS011;43707;50.184;18.966;2022-12-18T02:34:02;59.30;;;21.50;;
57889;SDS011;43707;50.184;18.966;2022-12-18T02:36:28;53.90;;;18.90;;
57889;SDS011;43707;50.184;18.966;2022-12-18T02:38:54;60.70;;;19.00;;
57889;SDS011;43707;50.184;18.966;2022-12-18T02:41:21;53.50;;;20.60;;
57889;SDS011;43707;50.184;18.966;2022-12-18T02:43:48;68.80;;;23.90;;
57889;SDS011;43707;50.184;18.966;2022-12-18T02:46:35;70.10;;;23.00;;
57889;SDS011;43707;50.184;18.966;2022-12-18T02:51:58;65.10;;;23.70;;
57889;SDS011;43707;50.184;18.966;2022-12-18T02:57:42;69.80;;;25.00;;
57889;SDS011;43707;50.184;18.966;2022-12-18T03:00:19;84.60;;;26.50;;
57889;SDS011;43707;50.184;18.966;2022-12-18T03:02:57;76.60;;;26.60;;
57889;SDS011;43707;50.184;18.966;2022-12-18T03:05:30;67.60;;;24.30;;
57889;SDS011;43707;50.184;18.966;2022-12-18T03:08:15;83.70;;;29.60;;
57889;SDS011;43707;50.184;18.966;2022-12-18T03:10:49;78.30;;;26.90;;
57889;SDS011;43707;50.184;18.966;2022-12-18T03:13:23;72.90;;;24.50;;
57889;SDS011;43707;50.184;18.966;2022-12-18T03:15:54;72.50;;;25.60;;
57889;SDS011;43707;50.184;18.966;2022-12-18T03:18:26;85.80;;;25.40;;
57889;SDS011;43707;50.184;18.966;2022-12-18T03:20:56;64.10;;;21.90;;
57889;SDS011;43707;50.184;18.966;2022-12-18T03:23:24;67.30;;;22.90;;
57889;SDS011;43707;50.184;18.966;2022-12-18T03:25:54;71.00;;;23.30;;
57889;SDS011;43707;50.184;18.966;2022-12-18T03:28:22;62.10;;;20.40;;
57889;SDS011;43707;50.184;18.966;2022-12-18T03:30:52;70.00;;;24.90;;
57889;SDS011;43707;50.184;18.966;2022-12-18T03:33:27;67.00;;;24.00;;
57889;SDS011;43707;50.184;18.966;2022-12-18T03:35:58;59.80;;;20.50;;
57889;SDS011;43707;50.184;18.966;2022-12-18T03:38:23;76.20;;;25.20;;
57889;SDS011;43707;50.184;18.966;2022-12-18T03:49:08;72.90;;;24.00;;
57889;SDS011;43707;50.184;18.966;2022-12-18T03:51:40;71.70;;;22.80;;
57889;SDS011;43707;50.184;18.966;2022-12-18T03:54:09;68.80;;;24.20;;
57889;SDS011;43707;50.184;18.966;2022-12-18T03:56:53;77.60;;;23.70;;
57889;SDS011;43707;50.184;18.966;2022-12-18T03:59:26;71.80;;;24.10;;
57889;SDS011;43707;50.184;18.966;2022-12-18T04:01:52;73.70;;;25.60;;
57889;SDS011;43707;50.184;18.966;2022-12-18T04:04:20;68.50;;;24.00;;
57889;SDS011;43707;50.184;18.966;2022-12-18T04:06:56;65.50;;;22.90;;
57889;SDS011;43707;50.184;18.966;2022-12-18T04:09:25;69.50;;;22.40;;
57889;SDS011;43707;50.184;18.966;2022-12-18T04:11:51;73.30;;;22.60;;
57889;SDS011;43707;50.184;18.966;2022-12-18T04:14:16;70.60;;;23.10;;
57889;SDS011;43707;50.184;18.966;2022-12-18T04:16:42;77.60;;;24.60;;
57889;SDS011;43707;50.184;18.966;2022-12-18T04:19:10;76.50;;;23.90;;
57889;SDS011;43707;50.184;18.966;2022-12-18T04:21:36;70.10;;;22.60;;
57889;SDS011;43707;50.184;18.966;2022-12-18T04:24:01;83.50;;;27.70;;
57889;SDS011;43707;50.184;18.966;2022-12-18T04:26:30;67.90;;;25.20;;
57889;SDS011;43707;50.184;18.966;2022-12-18T04:28:55;65.40;;;22.50;;
57889;SDS011;43707;50.184;18.966;2022-12-18T04:31:21;79.30;;;23.70;;
57889;SDS011;43707;50.184;18.966;2022-12-18T04:33:47;88.90;;;28.80;;
57889;SDS011;43707;50.184;18.966;2022-12-18T04:36:12;88.70;;;28.40;;
57889;SDS011;43707;50.184;18.966;2022-12-18T04:38:37;77.90;;;28.50;;
57889;SDS011;43707;50.184;18.966;2022-12-18T04:41:06;89.50;;;28.10;;
57889;SDS011;43707;50.184;18.966;2022-12-18T04:43:34;84.90;;;26.40;;
57889;SDS011;43707;50.184;18.966;2022-12-18T04:46:09;66.80;;;23.70;;
57889;SDS011;43707;50.184;18.966;2022-12-18T04:48:35;72.00;;;23.20;;
57889;SDS011;43707;50.184;18.966;2022-12-18T04:51:00;75.20;;;23.60;;
57889;SDS011;43707;50.184;18.966;2022-12-18T04:53:29;72.30;;;24.50;;
57889;SDS011;43707;50.184;18.966;2022-12-18T04:56:08;72.00;;;24.80;;
57889;SDS011;43707;50.184;18.966;2022-12-18T04:58:36;87.80;;;28.20;;
57889;SDS011;43707;50.184;18.966;2022-12-18T05:01:02;88.50;;;30.00;;
57889;SDS011;43707;50.184;18.966;2022-12-18T05:03:29;92.80;;;30.70;;
57889;SDS011;43707;50.184;18.966;2022-12-18T05:05:55;118.30;;;39.60;;
57889;SDS011;43707;50.184;18.966;2022-12-18T05:08:20;122.00;;;40.60;;
57889;SDS011;43707;50.184;18.966;2022-12-18T05:10:46;100.30;;;36.60;;
57889;SDS011;43707;50.184;18.966;2022-12-18T05:13:11;76.00;;;28.40;;
57889;SDS011;43707;50.184;18.966;2022-12-18T05:15:37;94.00;;;33.70;;
57889;SDS011;43707;50.184;18.966;2022-12-18T05:18:02;111.80;;;38.30;;
57889;SDS011;43707;50.184;18.966;2022-12-18T05:20:32;100.90;;;33.80;;
57889;SDS011;43707;50.184;18.966;2022-12-18T05:23:05;97.40;;;32.60;;
57889;SDS011;43707;50.184;18.966;2022-12-18T05:25:37;99.70;;;33.20;;
57889;SDS011;43707;50.184;18.966;2022-12-18T05:28:05;79.20;;;27.40;;
57889;SDS011;43707;50.184;18.966;2022-12-18T05:30:31;81.00;;;30.40;;
57889;SDS011;43707;50.184;18.966;2022-12-18T05:32:59;88.00;;;31.80;;
57889;SDS011;43707;50.184;18.966;2022-12-18T05:35:25;83.20;;;28.80;;
57889;SDS011;43707;50.184;18.966;2022-12-18T05:37:50;94.40;;;31.10;;
57889;SDS011;43707;50.184;18.966;2022-12-18T05:40:16;63.40;;;21.00;;
57889;SDS011;43707;50.184;18.966;2022-12-18T05:42:47;80.20;;;29.00;;
57889;SDS011;43707;50.184;18.966;2022-12-18T05:45:12;99.50;;;32.90;;
57889;SDS011;43707;50.184;18.966;2022-12-18T05:47:40;103.20;;;35.80;;
57889;SDS011;43707;50.184;18.966;2022-12-18T05:50:06;115.50;;;39.10;;
57889;SDS011;43707;50.184;18.966;2022-12-18T05:52:35;103.90;;;33.70;;
57889;SDS011;43707;50.184;18.966;2022-12-18T05:55:00;88.70;;;28.10;;
57889;SDS011;43707;50.184;18.966;2022-12-18T05:57:26;73.60;;;26.50;;
57889;SDS011;43707;50.184;18.966;2022-12-18T05:59:51;83.50;;;26.70;;
57889;SDS011;43707;50.184;18.966;2022-12-18T06:02:17;82.80;;;27.30;;
57889;SDS011;43707;50.184;18.966;2022-12-18T06:04:42;86.40;;;28.60;;
57889;SDS011;43707;50.184;18.966;2022-12-18T06:07:07;99.00;;;30.00;;
57889;SDS011;43707;50.184;18.966;2022-12-18T06:09:33;91.30;;;29.80;;
57889;SDS011;43707;50.184;18.966;2022-12-18T06:11:58;100.60;;;31.60;;
57889;SDS011;43707;50.184;18.966;2022-12-18T06:14:24;90.40;;;28.00;;
57889;SDS011;43707;50.184;18.966;2022-12-18T06:16:52;98.70;;;31.30;;
57889;SDS011;43707;50.184;18.966;2022-12-18T06:19:22;74.90;;;23.80;;
57889;SDS011;43707;50.184;18.966;2022-12-18T06:21:47;82.30;;;26.70;;
57889;SDS011;43707;50.184;18.966;2022-12-18T06:24:14;93.90;;;28.70;;
57889;SDS011;43707;50.184;18.966;2022-12-18T06:26:39;89.70;;;28.80;;
57889;SDS011;43707;50.184;18.966;2022-12-18T06:29:06;84.50;;;26.80;;
57889;SDS011;43707;50.184;18.966;2022-12-18T06:31:31;91.50;;;27.70;;
57889;SDS011;43707;50.184;18.966;2022-12-18T06:34:03;87.10;;;27.70;;
57889;SDS011;43707;50.184;18.966;2022-12-18T06:36:29;94.30;;;29.50;;
57889;SDS011;43707;50.184;18.966;2022-12-18T06:38:57;83.60;;;26.40;;
57889;SDS011;43707;50.184;18.966;2022-12-18T06:41:23;91.80;;;29.00;;
57889;SDS011;43707;50.184;18.966;2022-12-18T06:43:48;106.00;;;29.70;;
57889;SDS011;43707;50.184;18.966;2022-12-18T06:46:14;85.60;;;27.80;;
57889;SDS011;43707;50.184;18.966;2022-12-18T06:48:39;108.00;;;31.10;;
57889;SDS011;43707;50.184;18.966;2022-12-18T06:51:08;106.00;;;32.00;;
57889;SDS011;43707;50.184;18.966;2022-12-18T06:53:33;108.50;;;31.30;;
57889;SDS011;43707;50.184;18.966;2022-12-18T06:56:03;122.70;;;34.60;;
57889;SDS011;43707;50.184;18.966;2022-12-18T06:58:33;103.20;;;29.50;;
57889;SDS011;43707;50.184;18.966;2022-12-18T07:01:01;119.20;;;33.80;;
57889;SDS011;43707;50.184;18.966;2022-12-18T07:03:28;100.00;;;29.60;;
57889;SDS011;43707;50.184;18.966;2022-12-18T07:05:54;112.70;;;36.10;;
57889;SDS011;43707;50.184;18.966;2022-12-18T07:08:19;103.70;;;33.50;;
57889;SDS011;43707;50.184;18.966;2022-12-18T07:10:45;99.20;;;32.50;;
57889;SDS011;43707;50.184;18.966;2022-12-18T07:13:14;110.50;;;34.50;;
57889;SDS011;43707;50.184;18.966;2022-12-18T07:15:40;127.20;;;40.60;;
57889;SDS011;43707;50.184;18.966;2022-12-18T07:18:06;125.70;;;37.90;;
57889;SDS011;43707;50.184;18.966;2022-12-18T07:20:31;121.00;;;38.60;;
57889;SDS011;43707;50.184;18.966;2022-12-18T07:22:57;137.90;;;41.30;;
57889;SDS011;43707;50.184;18.966;2022-12-18T07:25:22;149.50;;;43.50;;
57889;SDS011;43707;50.184;18.966;2022-12-18T07:27:48;138.60;;;38.60;;
57889;SDS011;43707;50.184;18.966;2022-12-18T07:30:16;149.50;;;40.40;;
57889;SDS011;43707;50.184;18.966;2022-12-18T07:32:42;120.90;;;35.70;;
57889;SDS011;43707;50.184;18.966;2022-12-18T07:35:07;116.50;;;36.50;;
57889;SDS011;43707;50.184;18.966;2022-12-18T07:37:33;106.40;;;33.90;;
57889;SDS011;43707;50.184;18.966;2022-12-18T07:39:58;103.30;;;34.00;;
57889;SDS011;43707;50.184;18.966;2022-12-18T07:42:24;99.60;;;32.80;;
57889;SDS011;43707;50.184;18.966;2022-12-18T07:44:55;110.00;;;32.00;;
57889;SDS011;43707;50.184;18.966;2022-12-18T07:47:21;105.20;;;30.60;;
57889;SDS011;43707;50.184;18.966;2022-12-18T07:49:46;123.30;;;36.60;;
57889;SDS011;43707;50.184;18.966;2022-12-18T07:52:13;110.30;;;35.10;;
57889;SDS011;43707;50.184;18.966;2022-12-18T07:54:42;129.00;;;37.90;;
57889;SDS011;43707;50.184;18.966;2022-12-18T07:57:07;111.70;;;35.90;;
57889;SDS011;43707;50.184;18.966;2022-12-18T07:59:37;111.40;;;33.50;;
57889;SDS011;43707;50.184;18.966;2022-12-18T08:02:02;111.50;;;34.50;;
57889;SDS011;43707;50.184;18.966;2022-12-18T08:04:28;107.40;;;33.70;;
57889;SDS011;43707;50.184;18.966;2022-12-18T08:06:55;102.10;;;34.50;;
57889;SDS011;43707;50.184;18.966;2022-12-18T08:09:24;107.10;;;37.40;;
57889;SDS011;43707;50.184;18.966;2022-12-18T08:11:49;105.70;;;33.90;;
57889;SDS011;43707;50.184;18.966;2022-12-18T08:14:15;103.20;;;34.90;;
57889;SDS011;43707;50.184;18.966;2022-12-18T08:16:40;120.00;;;35.10;;
57889;SDS011;43707;50.184;18.966;2022-12-18T08:19:06;116.30;;;34.30;;
57889;SDS011;43707;50.184;18.966;2022-12-18T08:21:34;125.70;;;36.10;;
57889;SDS011;43707;50.184;18.966;2022-12-18T08:24:03;120.20;;;36.50;;
57889;SDS011;43707;50.184;18.966;2022-12-18T08:26:29;113.10;;;35.60;;
57889;SDS011;43707;50.184;18.966;2022-12-18T08:28:56;106.20;;;36.00;;
57889;SDS011;43707;50.184;18.966;2022-12-18T08:34:51;85.50;;;28.80;;
57889;SDS011;43707;50.184;18.966;2022-12-18T08:37:17;115.50;;;36.50;;
57889;SDS011;43707;50.184;18.966;2022-12-18T08:39:42;124.10;;;39.90;;
57889;SDS011;43707;50.184;18.966;2022-12-18T08:44:57;107.30;;;34.30;;
57889;SDS011;43707;50.184;18.966;2022-12-18T08:47:32;100.90;;;33.90;;
57889;SDS011;43707;50.184;18.966;2022-12-18T08:49:57;113.60;;;33.90;;
57889;SDS011;43707;50.184;18.966;2022-12-18T08:55:07;131.70;;;41.30;;
57889;SDS011;43707;50.184;18.966;2022-12-18T08:57:35;88.20;;;27.90;;
57889;SDS011;43707;50.184;18.966;2022-12-18T09:00:05;107.30;;;34.20;;
57889;SDS011;43707;50.184;18.966;2022-12-18T09:02:33;115.60;;;35.10;;
57889;SDS011;43707;50.184;18.966;2022-12-18T09:05:00;108.30;;;34.70;;
57889;SDS011;43707;50.184;18.966;2022-12-18T09:07:28;107.90;;;34.20;;
57889;SDS011;43707;50.184;18.966;2022-12-18T09:09:58;149.60;;;42.40;;
57889;SDS011;43707;50.184;18.966;2022-12-18T09:12:33;111.30;;;31.50;;
57889;SDS011;43707;50.184;18.966;2022-12-18T09:15:05;148.50;;;48.10;;
57889;SDS011;43707;50.184;18.966;2022-12-18T09:17:32;130.80;;;41.10;;
57889;SDS011;43707;50.184;18.966;2022-12-18T09:22:59;135.80;;;42.10;;
57889;SDS011;43707;50.184;18.966;2022-12-18T09:28:15;123.80;;;36.40;;
57889;SDS011;43707;50.184;18.966;2022-12-18T09:30:48;180.50;;;50.20;;
57889;SDS011;43707;50.184;18.966;2022-12-18T09:33:23;132.00;;;38.90;;
57889;SDS011;43707;50.184;18.966;2022-12-18T09:36:00;148.80;;;43.70;;
57889;SDS011;43707;50.184;18.966;2022-12-18T09:38:31;159.20;;;45.50;;
57889;SDS011;43707;50.184;18.966;2022-12-18T09:41:14;166.10;;;49.40;;
57889;SDS011;43707;50.184;18.966;2022-12-18T09:43:54;145.10;;;42.40;;
57889;SDS011;43707;50.184;18.966;2022-12-18T09:46:46;118.20;;;38.60;;
57889;SDS011;43707;50.184;18.966;2022-12-18T09:49:18;131.90;;;40.50;;
57889;SDS011;43707;50.184;18.966;2022-12-18T09:51:56;113.00;;;37.90;;
57889;SDS011;43707;50.184;18.966;2022-12-18T09:54:32;81.20;;;27.20;;
57889;SDS011;43707;50.184;18.966;2022-12-18T09:59:40;95.40;;;29.00;;
57889;SDS011;43707;50.184;18.966;2022-12-18T10:02:14;76.50;;;27.00;;
57889;SDS011;43707;50.184;18.966;2022-12-18T11:14:49;62.90;;;25.20;;
57889;SDS011;43707;50.184;18.966;2022-12-18T11:17:20;69.30;;;25.40;;
57889;SDS011;43707;50.184;18.966;2022-12-18T11:19:59;73.60;;;26.50;;
57889;SDS011;43707;50.184;18.966;2022-12-18T11:22:30;67.50;;;25.50;;
57889;SDS011;43707;50.184;18.966;2022-12-18T11:27:26;78.80;;;26.70;;
57889;SDS011;43707;50.184;18.966;2022-12-18T11:32:35;83.00;;;26.50;;
57889;SDS011;43707;50.184;18.966;2022-12-18T11:35:13;57.20;;;21.50;;
57889;SDS011;43707;50.184;18.966;2022-12-18T11:37:47;56.00;;;20.50;;
57889;SDS011;43707;50.184;18.966;2022-12-18T11:45:46;55.20;;;19.00;;
57889;SDS011;43707;50.184;18.966;2022-12-18T11:48:30;56.10;;;18.90;;
57889;SDS011;43707;50.184;18.966;2022-12-18T11:51:00;79.70;;;23.10;;
57889;SDS011;43707;50.184;18.966;2022-12-18T11:53:29;59.50;;;20.70;;
57889;SDS011;43707;50.184;18.966;2022-12-18T11:58:44;61.30;;;20.90;;
57889;SDS011;43707;50.184;18.966;2022-12-18T12:01:28;45.80;;;18.20;;
57889;SDS011;43707;50.184;18.966;2022-12-18T12:04:34;51.40;;;18.70;;
57889;SDS011;43707;50.184;18.966;2022-12-18T12:09:53;51.20;;;18.90;;
57889;SDS011;43707;50.184;18.966;2022-12-18T12:12:46;58.10;;;19.70;;
57889;SDS011;43707;50.184;18.966;2022-12-18T12:28:41;60.30;;;20.90;;
57889;SDS011;43707;50.184;18.966;2022-12-18T12:36:43;60.50;;;22.70;;
57889;SDS011;43707;50.184;18.966;2022-12-18T12:39:31;95.60;;;32.80;;
57889;SDS011;43707;50.184;18.966;2022-12-18T12:42:00;77.40;;;27.90;;
57889;SDS011;43707;50.184;18.966;2022-12-18T12:44:47;81.50;;;28.30;;
57889;SDS011;43707;50.184;18.966;2022-12-18T12:47:31;82.60;;;28.10;;
57889;SDS011;43707;50.184;18.966;2022-12-18T12:50:02;79.80;;;28.50;;
57889;SDS011;43707;50.184;18.966;2022-12-18T12:52:33;66.80;;;22.60;;
57889;SDS011;43707;50.184;18.966;2022-12-18T12:55:02;90.00;;;28.90;;
57889;SDS011;43707;50.184;18.966;2022-12-18T12:57:31;89.90;;;27.10;;
57889;SDS011;43707;50.184;18.966;2022-12-18T13:00:03;61.90;;;22.20;;
57889;SDS011;43707;50.184;18.966;2022-12-18T13:02:42;56.20;;;18.60;;
57889;SDS011;43707;50.184;18.966;2022-12-18T13:05:14;72.20;;;22.60;;
57889;SDS011;43707;50.184;18.966;2022-12-18T13:07:53;77.60;;;23.60;;
57889;SDS011;43707;50.184;18.966;2022-12-18T13:12:57;86.30;;;25.60;;
57889;SDS011;43707;50.184;18.966;2022-12-18T13:18:03;72.80;;;20.60;;
57889;SDS011;43707;50.184;18.966;2022-12-18T13:20:34;86.10;;;27.50;;
57889;SDS011;43707;50.184;18.966;2022-12-18T13:23:01;95.30;;;26.20;;
57889;SDS011;43707;50.184;18.966;2022-12-18T13:31:12;85.30;;;29.90;;
57889;SDS011;43707;50.184;18.966;2022-12-18T13:33:41;86.70;;;29.80;;
57889;SDS011;43707;50.184;18.966;2022-12-18T13:41:53;126.70;;;40.60;;
57889;SDS011;43707;50.184;18.966;2022-12-18T13:44:59;123.60;;;42.10;;
57889;SDS011;43707;50.184;18.966;2022-12-18T13:47:32;161.50;;;54.10;;
57889;SDS011;43707;50.184;18.966;2022-12-18T13:49:59;143.50;;;44.80;;
57889;SDS011;43707;50.184;18.966;2022-12-18T13:52:26;157.50;;;47.10;;
57889;SDS011;43707;50.184;18.966;2022-12-18T13:54:59;142.40;;;45.10;;
57889;SDS011;43707;50.184;18.966;2022-12-18T13:57:27;117.10;;;39.60;;
57889;SDS011;43707;50.184;18.966;2022-12-18T13:59:58;97.90;;;32.00;;
57889;SDS011;43707;50.184;18.966;2022-12-18T14:02:39;114.90;;;33.70;;
57889;SDS011;43707;50.184;18.966;2022-12-18T14:05:21;106.50;;;33.10;;
57889;SDS011;43707;50.184;18.966;2022-12-18T14:08:07;103.00;;;33.90;;
57889;SDS011;43707;50.184;18.966;2022-12-18T14:10:34;90.60;;;31.60;;
57889;SDS011;43707;50.184;18.966;2022-12-18T14:13:08;109.50;;;31.40;;
57889;SDS011;43707;50.184;18.966;2022-12-18T14:15:35;90.70;;;28.90;;
57889;SDS011;43707;50.184;18.966;2022-12-18T14:20:41;89.20;;;30.40;;
57889;SDS011;43707;50.184;18.966;2022-12-18T14:25:59;79.70;;;29.20;;
57889;SDS011;43707;50.184;18.966;2022-12-18T14:28:25;80.60;;;29.30;;
57889;SDS011;43707;50.184;18.966;2022-12-18T14:30:51;70.20;;;25.90;;
57889;SDS011;43707;50.184;18.966;2022-12-18T14:33:19;103.60;;;35.10;;
57889;SDS011;43707;50.184;18.966;2022-12-18T14:35:53;119.30;;;38.40;;
57889;SDS011;43707;50.184;18.966;2022-12-18T14:41:03;166.00;;;58.40;;
57889;SDS011;43707;50.184;18.966;2022-12-18T14:43:34;198.10;;;68.20;;
57889;SDS011;43707;50.184;18.966;2022-12-18T14:46:01;150.70;;;50.50;;
57889;SDS011;43707;50.184;18.966;2022-12-18T14:51:13;97.70;;;31.20;;
57889;SDS011;43707;50.184;18.966;2022-12-18T14:53:42;92.60;;;32.40;;
57889;SDS011;43707;50.184;18.966;2022-12-18T14:58:58;111.20;;;37.70;;
57889;SDS011;43707;50.184;18.966;2022-12-18T15:01:29;132.20;;;42.40;;
57889;SDS011;43707;50.184;18.966;2022-12-18T15:04:00;140.10;;;49.00;;
57889;SDS011;43707;50.184;18.966;2022-12-18T15:06:31;141.00;;;46.20;;
57889;SDS011;43707;50.184;18.966;2022-12-18T15:09:00;158.40;;;50.40;;
57889;SDS011;43707;50.184;18.966;2022-12-18T15:11:33;168.00;;;51.10;;
57889;SDS011;43707;50.184;18.966;2022-12-18T15:16:51;166.80;;;54.00;;
57889;SDS011;43707;50.184;18.966;2022-12-18T15:19:18;165.10;;;52.60;;
57889;SDS011;43707;50.184;18.966;2022-12-18T15:21:46;169.00;;;49.10;;
57889;SDS011;43707;50.184;18.966;2022-12-18T15:24:16;154.00;;;48.80;;
57889;SDS011;43707;50.184;18.966;2022-12-18T15:26:43;123.60;;;42.20;;
57889;SDS011;43707;50.184;18.966;2022-12-18T15:29:18;166.90;;;54.70;;
57889;SDS011;43707;50.184;18.966;2022-12-18T15:32:04;164.00;;;52.90;;
57889;SDS011;43707;50.184;18.966;2022-12-18T15:34:31;117.10;;;43.40;;
57889;SDS011;43707;50.184;18.966;2022-12-18T15:36:57;151.90;;;50.60;;
57889;SDS011;43707;50.184;18.966;2022-12-18T15:39:22;161.90;;;53.20;;
57889;SDS011;43707;50.184;18.966;2022-12-18T15:41:49;150.40;;;49.00;;
57889;SDS011;43707;50.184;18.966;2022-12-18T15:44:33;132.70;;;48.40;;
57889;SDS011;43707;50.184;18.966;2022-12-18T15:46:59;135.20;;;46.80;;
57889;SDS011;43707;50.184;18.966;2022-12-18T15:49:24;119.70;;;42.30;;
57889;SDS011;43707;50.184;18.966;2022-12-18T15:51:52;141.80;;;46.80;;
57889;SDS011;43707;50.184;18.966;2022-12-18T15:54:24;119.90;;;41.40;;
57889;SDS011;43707;50.184;18.966;2022-12-18T15:57:12;126.90;;;40.90;;
57889;SDS011;43707;50.184;18.966;2022-12-18T15:59:56;115.40;;;43.50;;
57889;SDS011;43707;50.184;18.966;2022-12-18T16:02:24;117.80;;;41.50;;
57889;SDS011;43707;50.184;18.966;2022-12-18T16:04:50;108.80;;;39.70;;
57889;SDS011;43707;50.184;18.966;2022-12-18T16:07:17;150.20;;;50.50;;
57889;SDS011;43707;50.184;18.966;2022-12-18T16:09:42;171.70;;;56.80;;
57889;SDS011;43707;50.184;18.966;2022-12-18T16:12:11;151.90;;;49.70;;
57889;SDS011;43707;50.184;18.966;2022-12-18T16:14:41;138.70;;;47.40;;
57889;SDS011;43707;50.184;18.966;2022-12-18T16:17:09;145.10;;;51.10;;
57889;SDS011;43707;50.184;18.966;2022-12-18T16:19:35;135.50;;;45.90;;
57889;SDS011;43707;50.184;18.966;2022-12-18T16:22:04;140.60;;;45.50;;
57889;SDS011;43707;50.184;18.966;2022-12-18T16:24:31;149.70;;;50.90;;
57889;SDS011;43707;50.184;18.966;2022-12-18T16:26:58;135.90;;;46.20;;
57889;SDS011;43707;50.184;18.966;2022-12-18T16:29:25;114.90;;;39.40;;
57889;SDS011;43707;50.184;18.966;2022-12-18T16:31:56;150.90;;;49.90;;
57889;SDS011;43707;50.184;18.966;2022-12-18T16:34:27;142.40;;;43.80;;
57889;SDS011;43707;50.184;18.966;2022-12-18T16:37:02;162.10;;;49.00;;
57889;SDS011;43707;50.184;18.966;2022-12-18T16:39:38;150.80;;;47.60;;
57889;SDS011;43707;50.184;18.966;2022-12-18T16:42:06;126.80;;;39.60;;
57889;SDS011;43707;50.184;18.966;2022-12-18T16:44:41;200.10;;;62.70;;
57889;SDS011;43707;50.184;18.966;2022-12-18T16:47:07;214.10;;;60.90;;
57889;SDS011;43707;50.184;18.966;2022-12-18T16:49:32;195.90;;;60.10;;
57889;SDS011;43707;50.184;18.966;2022-12-18T16:52:00;224.00;;;66.60;;
57889;SDS011;43707;50.184;18.966;2022-12-18T16:54:25;263.50;;;75.40;;
57889;SDS011;43707;50.184;18.966;2022-12-18T16:56:54;276.30;;;82.60;;
57889;SDS011;43707;50.184;18.966;2022-12-18T16:59:19;243.80;;;70.40;;
57889;SDS011;43707;50.184;18.966;2022-12-18T17:01:45;242.50;;;72.10;;
57889;SDS011;43707;50.184;18.966;2022-12-18T17:04:11;280.30;;;80.80;;
57889;SDS011;43707;50.184;18.966;2022-12-18T17:06:40;293.90;;;85.40;;
57889;SDS011;43707;50.184;18.966;2022-12-18T17:09:08;198.50;;;58.10;;
57889;SDS011;43707;50.184;18.966;2022-12-18T17:11:36;178.80;;;52.80;;
57889;SDS011;43707;50.184;18.966;2022-12-18T17:14:09;283.80;;;81.30;;
57889;SDS011;43707;50.184;18.966;2022-12-18T17:16:37;248.70;;;67.30;;
57889;SDS011;43707;50.184;18.966;2022-12-18T17:19:03;294.70;;;85.00;;
57889;SDS011;43707;50.184;18.966;2022-12-18T17:21:29;274.60;;;76.50;;
57889;SDS011;43707;50.184;18.966;2022-12-18T17:23:54;278.00;;;83.70;;
57889;SDS011;43707;50.184;18.966;2022-12-18T17:26:20;306.50;;;87.00;;
57889;SDS011;43707;50.184;18.966;2022-12-18T17:28:45;291.90;;;82.60;;